Map

Track Data

SID SEASON NUMBER BASIN SUBBASIN NAME ISO_TIME NATURE LAT LON WMO_WIND WMO_PRES WMO_AGENCY TRACK_TYPE DIST2LAND LANDFALL IFLAG USA_AGENCY USA_ATCF_ID USA_LAT USA_LON USA_RECORD USA_STATUS USA_WIND USA_PRES USA_SSHS USA_R34_NE USA_R34_SE USA_R34_SW USA_R34_NW USA_R50_NE USA_R50_SE USA_R50_SW USA_R50_NW USA_R64_NE USA_R64_SE USA_R64_SW USA_R64_NW USA_POCI USA_ROCI USA_RMW USA_EYE TOKYO_LAT TOKYO_LON TOKYO_GRADE TOKYO_WIND TOKYO_PRES TOKYO_R50_DIR TOKYO_R50_LONG TOKYO_R50_SHORT TOKYO_R30_DIR TOKYO_R30_LONG TOKYO_R30_SHORT TOKYO_LAND CMA_LAT CMA_LON CMA_CAT CMA_WIND CMA_PRES HKO_LAT HKO_LON HKO_CAT HKO_WIND HKO_PRES NEWDELHI_LAT NEWDELHI_LON NEWDELHI_GRADE NEWDELHI_WIND NEWDELHI_PRES NEWDELHI_CI NEWDELHI_DP NEWDELHI_POCI REUNION_LAT REUNION_LON REUNION_TYPE REUNION_WIND REUNION_PRES REUNION_TNUM REUNION_CI REUNION_RMW REUNION_R34_NE REUNION_R34_SE REUNION_R34_SW REUNION_R34_NW REUNION_R50_NE REUNION_R50_SE REUNION_R50_SW REUNION_R50_NW REUNION_R64_NE REUNION_R64_SE REUNION_R64_SW REUNION_R64_NW BOM_LAT BOM_LON BOM_TYPE BOM_WIND BOM_PRES BOM_TNUM BOM_CI BOM_RMW BOM_R34_NE BOM_R34_SE BOM_R34_SW BOM_R34_NW BOM_R50_NE BOM_R50_SE BOM_R50_SW BOM_R50_NW BOM_R64_NE BOM_R64_SE BOM_R64_SW BOM_R64_NW BOM_ROCI BOM_POCI BOM_EYE BOM_POS_METHOD BOM_PRES_METHOD NADI_LAT NADI_LON NADI_CAT NADI_WIND NADI_PRES WELLINGTON_LAT WELLINGTON_LON WELLINGTON_WIND WELLINGTON_PRES DS824_LAT DS824_LON DS824_STAGE DS824_WIND DS824_PRES TD9636_LAT TD9636_LON TD9636_STAGE TD9636_WIND TD9636_PRES TD9635_LAT TD9635_LON TD9635_WIND TD9635_PRES TD9635_ROCI NEUMANN_LAT NEUMANN_LON NEUMANN_CLASS NEUMANN_WIND NEUMANN_PRES MLC_LAT MLC_LON MLC_CLASS MLC_WIND MLC_PRES USA_GUST BOM_GUST BOM_GUST_PER REUNION_GUST REUNION_GUST_PER USA_SEAHGT USA_SEARAD_NE USA_SEARAD_SE USA_SEARAD_SW USA_SEARAD_NW STORM_SPEED STORM_DIR
2022222N12262 2022 45 EP MM IVETTE 2022-08-09 18:00:00 NR 12.0000 -98.0000 PROVISIONAL 430 430 O_____________ nhc_working_bt EP102022 12.0000 -98.0000 DB 20 1011 -3 1013 150 90 8 270
2022222N12262 2022 45 EP MM IVETTE 2022-08-09 21:00:00 NR 12.0001 -98.4275 PROVISIONAL 447 447 P_____________ EP102022 12.0001 -98.4275 DB 17 1011 -3 1013 150 90 9 270
2022222N12262 2022 45 EP MM IVETTE 2022-08-10 00:00:00 NR 12.0000 -98.9000 PROVISIONAL 463 463 O_____________ nhc_working_bt EP102022 12.0000 -98.9000 DB 15 1011 -3 1013 150 90 10 270
2022222N12262 2022 45 EP MM IVETTE 2022-08-10 03:00:00 NR 12.0000 -99.4425 PROVISIONAL 479 479 P_____________ EP102022 12.0000 -99.4425 DB 15 1011 -3 1013 150 90 11 270
2022222N12262 2022 45 EP MM IVETTE 2022-08-10 06:00:00 NR 12.0000 -100.000 PROVISIONAL 504 504 O_____________ nhc_working_bt EP102022 12.0000 -100.000 DB 15 1011 -3 1013 150 90 11 270
2022222N12262 2022 45 EP MM IVETTE 2022-08-10 09:00:00 NR 11.9924 -100.515 PROVISIONAL 523 523 P_____________ EP102022 11.9924 -100.515 DB 15 1011 -3 1013 150 90 10 270
2022222N12262 2022 45 EP MM IVETTE 2022-08-10 12:00:00 NR 12.0000 -101.000 PROVISIONAL 544 544 O_____________ nhc_working_bt EP102022 12.0000 -101.000 DB 15 1011 -3 1013 150 90 9 272
2022222N12262 2022 45 EP MM IVETTE 2022-08-10 15:00:00 NR 12.0199 -101.450 PROVISIONAL 560 558 P_____________ EP102022 12.0199 -101.450 DB 17 1011 -3 1013 150 90 9 276
2022222N12262 2022 45 EP MM IVETTE 2022-08-10 18:00:00 NR 12.1000 -101.900 PROVISIONAL 566 566 O_____________ nhc_working_bt EP102022 12.1000 -101.900 DB 20 1011 -3 1013 150 90 9 285
2022222N12262 2022 45 EP MM IVETTE 2022-08-10 21:00:00 NR 12.2699 -102.378 PROVISIONAL 571 567 P_____________ EP102022 12.2699 -102.378 DB 22 1010 -3 1013 150 90 11 292
2022222N12262 2022 45 EP MM IVETTE 2022-08-11 00:00:00 NR 12.5000 -102.900 PROVISIONAL 571 564 O_____________ nhc_working_bt EP102022 12.5000 -102.900 DB 25 1010 -3 1013 150 90 12 293
2022222N12262 2022 45 EP MM IVETTE 2022-08-11 03:00:00 NR 12.7425 -103.493 PROVISIONAL 575 565 P_____________ EP102022 12.7425 -103.493 DB 25 1010 -3 1013 165 90 13 293
2022222N12262 2022 45 EP MM IVETTE 2022-08-11 06:00:00 NR 13.0000 -104.100 PROVISIONAL 579 570 O_____________ nhc_working_bt EP102022 13.0000 -104.100 DB 25 1010 -3 1013 180 90 13 294
2022222N12262 2022 45 EP MM IVETTE 2022-08-11 09:00:00 NR 13.2650 -104.695 PROVISIONAL 570 563 P_____________ EP102022 13.2650 -104.695 DB 22 1010 -3 1012 190 90 12 295
2022222N12262 2022 45 EP MM IVETTE 2022-08-11 12:00:00 NR 13.5000 -105.200 PROVISIONAL 567 560 O_____________ nhc_working_bt EP102022 13.5000 -105.200 DB 20 1010 -3 1012 200 90 30 9 295
2022222N12262 2022 45 EP MM IVETTE 2022-08-11 15:00:00 NR 13.6573 -105.545 PROVISIONAL 557 555 P_____________ EP102022 13.6573 -105.545 DB 22 1009 -3 1012 200 80 7 297
2022222N12262 2022 45 EP MM IVETTE 2022-08-11 18:00:00 DS 13.8000 -105.800 PROVISIONAL 560 550 O_____________ nhc_working_bt EP102022 13.8000 -105.800 LO 25 1009 -3 1012 200 70 6 304
2022222N12262 2022 45 EP MM IVETTE 2022-08-11 21:00:00 DS 13.9849 -106.050 PROVISIONAL 555 545 P_____________ EP102022 13.9849 -106.050 LO 25 1009 -3 1011 200 70 6 310
2022222N12262 2022 45 EP MM IVETTE 2022-08-12 00:00:00 DS 14.2000 -106.300 PROVISIONAL 547 541 O_____________ nhc_working_bt EP102022 14.2000 -106.300 LO 25 1009 -3 1011 200 70 35 7 310
2022222N12262 2022 45 EP MM IVETTE 2022-08-12 03:00:00 DS 14.4350 -106.600 PROVISIONAL 547 538 P_____________ EP102022 14.4350 -106.600 LO 25 1009 -3 1011 200 70 8 311
2022222N12262 2022 45 EP MM IVETTE 2022-08-12 06:00:00 DS 14.7000 -106.900 PROVISIONAL 541 529 O_____________ nhc_working_bt EP102022 14.7000 -106.900 LO 25 1009 -3 1011 200 70 35 8 315
2022222N12262 2022 45 EP MM IVETTE 2022-08-12 09:00:00 DS 14.9850 -107.165 PROVISIONAL 534 516 P_____________ EP102022 14.9850 -107.165 LO 25 1009 -3 1011 200 70 8 321
2022222N12262 2022 45 EP MM IVETTE 2022-08-12 12:00:00 DS 15.3000 -107.400 PROVISIONAL 516 494 O_____________ nhc_working_bt EP102022 15.3000 -107.400 LO 25 1009 -3 1011 200 70 35 8 329
2022222N12262 2022 45 EP MM IVETTE 2022-08-12 15:00:00 DS 15.6349 -107.578 PROVISIONAL 500 478 P_____________ EP102022 15.6349 -107.578 LO 25 1009 -3 1011 200 70 8 331
2022222N12262 2022 45 EP MM IVETTE 2022-08-12 18:00:00 DS 16.0000 -107.800 PROVISIONAL 478 469 O_____________ nhc_working_bt EP102022 16.0000 -107.800 LO 25 1009 -3 1011 200 70 35 10 324
2022222N12262 2022 45 EP MM IVETTE 2022-08-12 21:00:00 DS 16.4150 -108.162 PROVISIONAL 476 468 P_____________ EP102022 16.4150 -108.162 LO 25 1009 -3 1011 190 70 11 316
2022222N12262 2022 45 EP MM IVETTE 2022-08-13 00:00:00 DS 16.8000 -108.600 PROVISIONAL 476 476 O_____________ nhc_working_bt EP102022 16.8000 -108.600 LO 25 1009 -3 1011 180 70 35 11 308
2022222N12262 2022 45 EP MM IVETTE 2022-08-13 03:00:00 DS 17.0800 -109.050 PROVISIONAL 495 495 P_____________ EP102022 17.0800 -109.050 LO 25 1009 -3 1011 180 70 10 300
2022222N12262 2022 45 EP MM IVETTE 2022-08-13 06:00:00 DS 17.3000 -109.500 PROVISIONAL 517 517 O_____________ nhc_working_bt EP102022 17.3000 -109.500 LO 25 1009 -3 1011 180 70 9 299
2022222N12262 2022 45 EP MM IVETTE 2022-08-13 09:00:00 DS 17.5223 -109.893 PROVISIONAL 541 541 P_____________ EP102022 17.5223 -109.893 LO 27 1008 -3 1011 150 55 9 298
2022222N12262 2022 45 EP MM IVETTE 2022-08-13 12:00:00 TS 17.7000 -110.300 PROVISIONAL 566 566 O_____________ nhc_working_bt EP102022 17.7000 -110.300 TD 30 1008 -1 1011 120 40 40 9 288
2022222N12262 2022 45 EP MM IVETTE 2022-08-13 15:00:00 TS 17.8152 -110.815 PROVISIONAL 576 568 P_____________ EP102022 17.8152 -110.815 TD 30 1007 -1 1011 120 35 10 282
2022222N12262 2022 45 EP MM IVETTE 2022-08-13 18:00:00 TS 17.9000 -111.300 PROVISIONAL 575 569 O_____________ nhc_working_bt EP102022 17.9000 -111.300 TD 30 1007 -1 1011 120 30 40 8 284
2022222N12262 2022 45 EP MM IVETTE 2022-08-13 21:00:00 TS 18.0000 -111.624 PROVISIONAL 572 568 P_____________ EP102022 17.9998 -111.638 TD 30 1007 -1 1011 120 30 6 289
2022222N12262 2022 45 EP MM IVETTE 2022-08-14 00:00:00 TS 18.1000 -111.900 PROVISIONAL 572 565 O_____________ nhc_working_bt EP102022 18.1000 -111.900 TD 30 1007 -1 1011 120 30 40 5 292
2022222N12262 2022 45 EP MM IVETTE 2022-08-14 03:00:00 TS 18.2074 -112.158 PROVISIONAL 573 567 P_____________ EP102022 18.2224 -112.157 TD 30 1007 -1 1011 120 30 5 293
2022222N12262 2022 45 EP MM IVETTE 2022-08-14 06:00:00 TS 18.3000 -112.400 PROVISIONAL 571 566 O_____________ nhc_working_bt EP102022 18.3000 -112.400 TD 30 1007 -1 1011 120 30 40 5 291
2022222N12262 2022 45 EP MM IVETTE 2022-08-14 09:00:00 TS 18.3950 -112.665 PROVISIONAL 576 576 P_____________ EP102022 18.2800 -112.665 TD 30 1007 -1 1011 120 30 5 282
2022222N12262 2022 45 EP MM IVETTE 2022-08-14 12:00:00 TS 18.4000 -112.900 PROVISIONAL 586 586 O_____________ nhc_working_bt EP102022 18.2000 -112.900 TD 30 1007 -1 1011 120 30 40 4 245
2022222N12262 2022 45 EP MM IVETTE 2022-08-14 15:00:00 TS 18.2150 -113.075 PROVISIONAL 616 616 P_____________ EP102022 18.1000 -113.080 TD 30 1007 -1 1011 120 30 5 215
2022222N12262 2022 45 EP MM IVETTE 2022-08-14 18:00:00 TS 18.0000 -113.200 PROVISIONAL 641 641 O_____________ nhc_working_bt EP102022 18.0000 -113.200 TD 30 1007 -1 1012 120 30 40 4 216
2022222N12262 2022 45 EP MM IVETTE 2022-08-14 21:00:00 TS 17.9150 -113.303 PROVISIONAL 656 656 P_____________ EP102022 17.9350 -113.265 TD 30 1007 -1 1012 120 35 2 237
2022222N12262 2022 45 EP MM IVETTE 2022-08-15 00:00:00 TS 17.9000 -113.367 PROVISIONAL 661 661 O_____________ nhc_working_bt EP102022 17.9000 -113.300 TD 30 1007 -1 1012 120 40 40 1 287
2022222N12262 2022 45 EP MM IVETTE 2022-08-15 03:00:00 TS 17.9383 -113.388 PROVISIONAL 661 652 P_____________ EP102022 17.9000 -113.350 TD 27 1007 -1 1012 120 40 1 327
2022222N12262 2022 45 EP MM IVETTE 2022-08-15 06:00:00 TS 17.9667 -113.400 PROVISIONAL 652 652 O_____________ nhc_working_bt EP102022 17.9000 -113.400 TD 25 1007 -1 1012 120 40 35 1 221
2022222N12262 2022 45 EP MM IVETTE 2022-08-15 09:00:00 TS 17.8958 -113.438 PROVISIONAL 661 661 P_____________ EP102022 17.8575 -113.443 TD 30 1006 -1 1012 120 40 2 211
2022222N12262 2022 45 EP MM IVETTE 2022-08-15 12:00:00 TS 17.8000 -113.500 PROVISIONAL 676 676 O_____________ nhc_working_bt EP102022 17.8000 -113.500 TS 35 1006 0 80 1012 120 40 35 2 221
2022222N12262 2022 45 EP MM IVETTE 2022-08-15 15:00:00 TS 17.7400 -113.578 PROVISIONAL 692 692 P_____________ EP102022 17.7500 -113.577 TS 35 1005 0 80 1011 120 50 2 242
2022222N12262 2022 45 EP MM IVETTE 2022-08-15 18:00:00 TS 17.7000 -113.700 PROVISIONAL 697 697 O_____________ nhc_working_bt EP102022 17.7000 -113.700 TS 35 1005 0 80 1011 120 60 3 265
2022222N12262 2022 45 EP MM IVETTE 2022-08-15 21:00:00 TS 17.7109 -113.900 PROVISIONAL 709 709 P_____________ EP102022 17.6726 -113.900 TS 32 1005 -1 1011 130 60 4 265
2022222N12262 2022 45 EP MM IVETTE 2022-08-16 00:00:00 TS 17.6667 -114.100 PROVISIONAL 721 721 O_____________ nhc_working_bt EP102022 17.6000 -114.100 TD 30 1006 -1 1011 140 60 40 4 228
2022222N12262 2022 45 EP MM IVETTE 2022-08-16 03:00:00 TS 17.4308 -114.223 PROVISIONAL 755 755 P_____________ EP102022 17.3925 -114.223 TD 30 1006 -1 1010 135 60 5 202
2022222N12262 2022 45 EP MM IVETTE 2022-08-16 06:00:00 TS 17.2000 -114.300 PROVISIONAL 779 779 O_____________ nhc_working_bt EP102022 17.2000 -114.300 TD 30 1006 -1 1009 130 60 40 3 200
2022222N12262 2022 45 EP MM IVETTE 2022-08-16 09:00:00 TS 17.1649 -114.327 PROVISIONAL 779 779 P_____________ EP102022 17.1699 -114.327 TD 30 1006 -1 1008 155 60 1 270
2022222N12262 2022 45 EP MM IVETTE 2022-08-16 12:00:00 TS 17.2000 -114.400 PROVISIONAL 785 785 O_____________ nhc_working_bt EP102022 17.2000 -114.400 TD 30 1006 -1 1008 180 60 40 3 277
2022222N12262 2022 45 EP MM IVETTE 2022-08-16 15:00:00 TS 17.1989 -114.622 PROVISIONAL 798 798 P_____________ EP102022 17.1925 -114.620 TD 27 1006 -1 1009 190 60 5 270
2022222N12262 2022 45 EP MM IVETTE 2022-08-16 18:00:00 DS 17.2000 -114.900 PROVISIONAL 817 817 O_____________ nhc_working_bt EP102022 17.2000 -114.900 LO 25 1007 -3 1010 200 60 35 5 271
2022222N12262 2022 45 EP MM IVETTE 2022-08-16 21:00:00 DS 17.2053 -115.148 PROVISIONAL 830 830 P_____________ EP102022 17.2350 -115.165 LO 25 1007 -3 1010 187 60 5 272
2022222N12262 2022 45 EP MM IVETTE 2022-08-17 00:00:00 DS 17.2150 -115.379 PROVISIONAL 850 850 O_____________ nhc_working_bt EP102022 17.3000 -115.400 LO 25 1007 -3 1010 175 60 4 273
2022222N12262 2022 45 EP MM IVETTE 2022-08-17 03:00:00 DS 17.2298 -115.577 PROVISIONAL 864 864 P_____________ EP102022 17.3924 -115.550 LO 25 1007 -3 1010 187 60 4 275
2022222N12262 2022 45 EP MM IVETTE 2022-08-17 06:00:00 DS 17.2447 -115.769 PROVISIONAL 879 878 O_____________ nhc_working_bt EP102022 17.5000 -115.700 LO 25 1007 -3 1010 200 60 4 274
2022222N12262 2022 45 EP MM IVETTE 2022-08-17 09:00:00 DS 17.2565 -115.987 PROVISIONAL 885 885 P_____________ EP102022 17.6075 -115.935 LO 25 1007 -3 1009 175 60 4 272
2022222N12262 2022 45 EP MM IVETTE 2022-08-17 12:00:00 DS 17.2593 -116.210 PROVISIONAL 900 900 O_____________ nhc_working_bt EP102022 17.7000 -116.200 LO 25 1007 -3 1008 150 60 4 268
2022222N12262 2022 45 EP MM IVETTE 2022-08-17 15:00:00 DS 17.2432 -116.429 PROVISIONAL 923 923 P_____________ EP102022 17.7425 -116.458 LO 22 1007 -3 1009 150 60 4 274
2022222N12262 2022 45 EP MM IVETTE 2022-08-17 18:00:00 DS 17.2864 -116.646 PROVISIONAL 930 930 O_____________ nhc_working_bt EP102022 17.8000 -116.700 LO 20 1008 -3 1011 150 60 4 293
2022222N12262 2022 45 EP MM IVETTE 2022-08-17 21:00:00 DS 17.4132 -116.844 PROVISIONAL 938 931 P_____________ EP102022 17.9349 -116.885 LO 20 1008 -3 1011 145 60 6 314
2022222N12262 2022 45 EP MM IVETTE 2022-08-18 00:00:00 DS 17.6792 -117.065 PROVISIONAL 937 910 O_____________ nhc_working_bt EP102022 18.1000 -117.100 LO 20 1008 -3 1011 140 60 10 326
2022222N12262 2022 45 EP MM IVETTE 2022-08-18 03:00:00 DS 18.2651 -117.450 PROVISIONAL 901 901 P_____________ EP102022 18.2651 -117.450 LO 20 1008 -3 1011 140 60 10 316
2022222N12262 2022 45 EP MM IVETTE 2022-08-18 06:00:00 DS 18.4000 -117.800 PROVISIONAL 918 916 O_____________ nhc_working_bt EP102022 18.4000 -117.800 LO 20 1008 -3 1011 140 60 6 293
2022222N12262 2022 45 EP MM IVETTE 2022-08-18 09:00:00 DS 18.4873 -118.008 PROVISIONAL 922 922 P_____________ EP102022 18.4873 -118.008 LO 20 1008 -3 1010 130 60 4 285
2022222N12262 2022 45 EP MM IVETTE 2022-08-18 12:00:00 DS 18.5000 -118.200 PROVISIONAL 936 936 O_____________ nhc_working_bt EP102022 18.5000 -118.200 LO 20 1008 -3 1010 120 60 5 261
2022222N12262 2022 45 EP MM IVETTE 2022-08-18 15:00:00 DS 18.4150 -118.485 PROVISIONAL 966 966 P_____________ EP102022 18.4150 -118.485 LO 20 1008 -3 1011 120 60 6 251
2022222N12262 2022 45 EP MM IVETTE 2022-08-18 18:00:00 DS 18.3000 -118.800 PROVISIONAL 995 995 O_____________ nhc_working_bt EP102022 18.3000 -118.800 LO 20 1009 -3 1012 120 60 6 255
2022222N12262 2022 45 EP MM IVETTE 2022-08-18 21:00:00 DS 18.2500 -119.122 PROVISIONAL 1017 1017 P_____________ EP102022 18.2500 -119.122 LO 20 1009 -3 1012 120 60 6 260
2022222N12262 2022 45 EP MM IVETTE 2022-08-19 00:00:00 DS 18.2000 -119.400 PROVISIONAL 1047 1047 O_____________ nhc_working_bt EP102022 18.2000 -119.400 LO 20 1009 -3 1012 120 60 5 252
2022222N12262 2022 45 EP MM IVETTE 2022-08-19 03:00:00 DS 18.1074 -119.572 PROVISIONAL 1070 1070 P_____________ EP102022 18.1074 -119.572 LO 20 1009 -3 1012 120 60 3 235
2022222N12262 2022 45 EP MM IVETTE 2022-08-19 06:00:00 DS 18.0000 -119.700 PROVISIONAL 1085 1085 O_____________ nhc_working_bt EP102022 18.0000 -119.700 LO 20 1009 -3 1012 120 60 3 232
2022222N12262 2022 45 EP MM IVETTE 2022-08-19 09:00:00 DS 17.9074 -119.835 PROVISIONAL 1101 1101 P_____________ EP102022 17.9074 -119.835 LO 20 1009 -3 1012 120 60 3 235
2022222N12262 2022 45 EP MM IVETTE 2022-08-19 12:00:00 DS 17.8000 -120.000 PROVISIONAL 1124 1124 O_____________ nhc_working_bt EP102022 17.8000 -120.000 LO 20 1009 -3 1012 120 60 4 238
2022222N12262 2022 45 EP MM IVETTE 2022-08-19 15:00:00 DS 17.6725 -120.235 PROVISIONAL 1147 1147 P_____________ EP102022 17.6725 -120.235 LO 20 1009 -3 1012 120 60 6 238
2022222N12262 2022 45 EP MM IVETTE 2022-08-19 18:00:00 DS 17.5000 -120.500 PROVISIONAL 1185 1185 O_____________ nhc_working_bt EP102022 17.5000 -120.500 LO 20 1009 -3 1012 120 60 6 230
2022222N12262 2022 45 EP MM IVETTE 2022-08-19 21:00:00 DS 17.2575 -120.750 PROVISIONAL 1223 1223 P_____________ EP102022 17.2575 -120.750 LO 20 1009 -3 1012 120 60 7 224
2022222N12262 2022 45 EP MM IVETTE 2022-08-20 00:00:00 DS 17.0000 -121.000 PROVISIONAL 1262 1262 O_____________ nhc_working_bt EP102022 17.0000 -121.000 LO 20 1009 -3 1012 120 60 7 224
2022222N12262 2022 45 EP MM IVETTE 2022-08-20 03:00:00 DS 16.7774 -121.235 PROVISIONAL 1293 1293 P_____________ EP102022 16.7774 -121.235 LO 20 1009 -3 1012 120 60 6 230
2022222N12262 2022 45 EP MM IVETTE 2022-08-20 06:00:00 DS 16.6000 -121.500 PROVISIONAL 1331 1331 O_____________ nhc_working_bt EP102022 16.6000 -121.500 LO 20 1009 -3 1012 120 60 7 242
2022222N12262 2022 45 EP MM IVETTE 2022-08-20 09:00:00 DS 16.4700 -121.835 PROVISIONAL 1362 1362 P_____________ EP102022 16.4700 -121.835 LO 22 1008 -3 1012 120 60 7 253
2022222N12262 2022 45 EP MM IVETTE 2022-08-20 12:00:00 DS 16.4000 -122.200 PROVISIONAL 1400 1400 O_____________ nhc_working_bt EP102022 16.4000 -122.200 LO 25 1008 -3 1012 120 60 7 262
2022222N12262 2022 45 EP MM IVETTE 2022-08-20 15:00:00 DS 16.3699 -122.543 PROVISIONAL 1424 1424 P_____________ EP102022 16.3699 -122.543 LO 25 1008 -3 1012 120 60 7 270
2022222N12262 2022 45 EP MM IVETTE 2022-08-20 18:00:00 DS 16.4000 -122.900 PROVISIONAL 1455 1455 O_____________ nhc_working_bt EP102022 16.4000 -122.900 LO 25 1008 -3 1012 120 60 7 279
2022222N12262 2022 45 EP MM IVETTE 2022-08-20 21:00:00 DS 16.4774 -123.285 PROVISIONAL 1480 1480 P_____________ EP102022 16.4774 -123.285 LO 25 1008 -3 1012 120 60 8 285
2022222N12262 2022 45 EP MM IVETTE 2022-08-21 00:00:00 DS 16.6000 -123.700 PROVISIONAL 1505 1505 O_____________ nhc_working_bt EP102022 16.6000 -123.700 LO 25 1008 -3 1012 120 60 9 289
2022222N12262 2022 45 EP MM IVETTE 2022-08-21 03:00:00 DS 16.7574 -124.135 PROVISIONAL 1525 1525 P_____________ EP102022 16.7574 -124.135 LO 25 1008 -3 1012 120 60 9 289
2022222N12262 2022 45 EP MM IVETTE 2022-08-21 06:00:00 DS 16.9000 -124.600 PROVISIONAL 1557 1557 O_____________ nhc_working_bt EP102022 16.9000 -124.600 LO 25 1008 -3 1012 120 60 9 283
2022222N12262 2022 45 EP MM IVETTE 2022-08-21 09:00:00 DS 16.9649 -125.085 PROVISIONAL 1582 1582 P_____________ EP102022 16.9649 -125.085 LO 25 1008 -3 1012 120 60 10 276
2022222N12262 2022 45 EP MM IVETTE 2022-08-21 12:00:00 DS 17.0000 -125.600 PROVISIONAL 1616 1616 O_____________ nhc_working_bt EP102022 17.0000 -125.600 LO 25 1008 -3 1012 120 60 10 275
2022222N12262 2022 45 EP MM IVETTE 2022-08-21 15:00:00 DS 17.0453 -126.142 PROVISIONAL 1651 1650 P_____________ EP102022 17.0453 -126.142 LO 25 1008 -3 1012 120 60 11 275
2022222N12262 2022 45 EP MM IVETTE 2022-08-21 18:00:00 DS 17.1000 -126.700 PROVISIONAL 1686 O_____________ nhc_working_bt EP102022 17.1000 -126.700 LO 25 1008 -3 1012 120 60 11 276

About IBTrACS Database

This database is a web-friendly format of International Best Track Archive for Climate Stewardship (IBTrACS), a global best track data archive curated by NOAA dating back to 1842.

Updated: 2022-09-23